Aviation Digital Data Service (ADDS)

Output produced by METARs form (1950 UTC 17 November 2019)
found at http://www.aviationweather.gov/metar/data/
 
METAR text: EDDR 171920Z 32004KT 290V010 7000 -RA FEW004 BKN007 BKN012 04/04 Q1003 TEMPO 3000 BR
Conditions at: EDDR (SAARBRUECKEN , DE) observed 1920 UTC 17 November 2019
Temperature: 4.0°C (39°F)
Dewpoint: 4.0°C (39°F) [RH = 100%]
Pressure (altimeter): 29.62 inches Hg (1003.0 mb)
Winds: from the NW (320 degrees) at 5 MPH (4 knots; 2.1 m/s)
Visibility: 4 miles ( 7 km)
Ceiling: 700 feet AGL
Clouds: few clouds at 400 feet AGL
broken clouds at 700 feet AGL
broken clouds at 1200 feet AGL
Weather: -RA  (light rain)

METAR text: EDDR 171850Z 29006KT 7000 -RA FEW004 BKN008 BKN015 04/04 Q1003 TEMPO 3000 BR
Conditions at: EDDR (SAARBRUECKEN , DE) observed 1850 UTC 17 November 2019
Temperature: 4.0°C (39°F)
Dewpoint: 4.0°C (39°F) [RH = 100%]
Pressure (altimeter): 29.62 inches Hg (1003.0 mb)
Winds: from the WNW (290 degrees) at 7 MPH (6 knots; 3.1 m/s)
Visibility: 4 miles ( 7 km)
Ceiling: 800 feet AGL
Clouds: few clouds at 400 feet AGL
broken clouds at 800 feet AGL
broken clouds at 1500 feet AGL
Weather: -RA  (light rain)

METAR text: EDDR 171820Z 28004KT 7000 -RA FEW005 BKN008 BKN015 04/04 Q1003 TEMPO 3000 BR
Conditions at: EDDR (SAARBRUECKEN , DE) observed 1820 UTC 17 November 2019
Temperature: 4.0°C (39°F)
Dewpoint: 4.0°C (39°F) [RH = 100%]
Pressure (altimeter): 29.62 inches Hg (1003.0 mb)
Winds: from the W (280 degrees) at 5 MPH (4 knots; 2.1 m/s)
Visibility: 4 miles ( 7 km)
Ceiling: 800 feet AGL
Clouds: few clouds at 500 feet AGL
broken clouds at 800 feet AGL
broken clouds at 1500 feet AGL
Weather: -RA  (light rain)

METAR text: EDDR 171750Z 31004KT 280V350 7000 -RA FEW005 BKN008 BKN012 04/04 Q1003 TEMPO 3000 BR
Conditions at: EDDR (SAARBRUECKEN , DE) observed 1750 UTC 17 November 2019
Temperature: 4.0°C (39°F)
Dewpoint: 4.0°C (39°F) [RH = 100%]
Pressure (altimeter): 29.62 inches Hg (1003.0 mb)
Winds: from the NW (310 degrees) at 5 MPH (4 knots; 2.1 m/s)
Visibility: 4 miles ( 7 km)
Ceiling: 800 feet AGL
Clouds: few clouds at 500 feet AGL
broken clouds at 800 feet AGL
broken clouds at 1200 feet AGL
Weather: -RA  (light rain)

METAR text: EDDR 171720Z 31005KT 280V340 6000 -RA FEW003 BKN007 BKN012 04/04 Q1003 TEMPO 3000 BR
Conditions at: EDDR (SAARBRUECKEN , DE) observed 1720 UTC 17 November 2019
Temperature: 4.0°C (39°F)
Dewpoint: 4.0°C (39°F) [RH = 100%]
Pressure (altimeter): 29.62 inches Hg (1003.0 mb)
Winds: from the NW (310 degrees) at 6 MPH (5 knots; 2.6 m/s)
Visibility: 4 miles ( 6 km)
Ceiling: 700 feet AGL
Clouds: few clouds at 300 feet AGL
broken clouds at 700 feet AGL
broken clouds at 1200 feet AGL
Weather: -RA  (light rain)

METAR text: EDDR 171650Z 31005KT 6000 -RA FEW003 BKN007 BKN012 04/04 Q1003 TEMPO 3000 BR
Conditions at: EDDR (SAARBRUECKEN , DE) observed 1650 UTC 17 November 2019
Temperature: 4.0°C (39°F)
Dewpoint: 4.0°C (39°F) [RH = 100%]
Pressure (altimeter): 29.62 inches Hg (1003.0 mb)
Winds: from the NW (310 degrees) at 6 MPH (5 knots; 2.6 m/s)
Visibility: 4 miles ( 6 km)
Ceiling: 700 feet AGL
Clouds: few clouds at 300 feet AGL
broken clouds at 700 feet AGL
broken clouds at 1200 feet AGL
Weather: -RA  (light rain)

METAR text: EDDR 171620Z 29005KT 2500 -RA BR FEW003 BKN006 BKN012 04/04 Q1003 TEMPO BKN003
Conditions at: EDDR (SAARBRUECKEN , DE) observed 1620 UTC 17 November 2019
Temperature: 4.0°C (39°F)
Dewpoint: 4.0°C (39°F) [RH = 100%]
Pressure (altimeter): 29.62 inches Hg (1003.0 mb)
Winds: from the WNW (290 degrees) at 6 MPH (5 knots; 2.6 m/s)
Visibility: 1.55 miles (2.49 km)
Ceiling: 600 feet AGL
Clouds: few clouds at 300 feet AGL
broken clouds at 600 feet AGL
broken clouds at 1200 feet AGL
Weather: -RA BR  (light rain, mist)

METAR text: EDDR 171550Z 31003KT 280V360 2000 -RA BR FEW004 SCT006 BKN012 04/04 Q1004 BECMG BKN006
Conditions at: EDDR (SAARBRUECKEN , DE) observed 1550 UTC 17 November 2019
Temperature: 4.0°C (39°F)
Dewpoint: 4.0°C (39°F) [RH = 100%]
Pressure (altimeter): 29.65 inches Hg (1004.0 mb)
Winds: from the NW (310 degrees) at 3 MPH (3 knots; 1.5 m/s)
Visibility: 1.24 miles (2.00 km)
Ceiling: 1200 feet AGL
Clouds: few clouds at 400 feet AGL
scattered clouds at 600 feet AGL
broken clouds at 1200 feet AGL
Weather: -RA BR  (light rain, mist)

METAR text: EDDR 171520Z 30007KT 9999 3000W -RA BR FEW007 BKN030 04/04 Q1003 BECMG 3000
Conditions at: EDDR (SAARBRUECKEN , DE) observed 1520 UTC 17 November 2019
Temperature: 4.0°C (39°F)
Dewpoint: 4.0°C (39°F) [RH = 100%]
Pressure (altimeter): 29.62 inches Hg (1003.0 mb)
Winds: from the WNW (300 degrees) at 8 MPH (7 knots; 3.6 m/s)
Visibility: 6 or more miles (10+ km)
Ceiling: 3000 feet AGL
Clouds: few clouds at 700 feet AGL
broken clouds at 3000 feet AGL
Weather: -RA BR  (light rain, mist)

METAR text: EDDR 171450Z 32009KT 300V360 9999 -RA FEW007 BKN030 04/03 Q1004 NOSIG
Conditions at: EDDR (SAARBRUECKEN , DE) observed 1450 UTC 17 November 2019
Temperature: 4.0°C (39°F)
Dewpoint: 3.0°C (37°F) [RH = 93%]
Pressure (altimeter): 29.65 inches Hg (1004.0 mb)
Winds: from the NW (320 degrees) at 10 MPH (9 knots; 4.6 m/s)
Visibility: 6 or more miles (10+ km)
Ceiling: 3000 feet AGL
Clouds: few clouds at 700 feet AGL
broken clouds at 3000 feet AGL
Weather: -RA  (light rain)

METAR text: EDDR 171420Z 32005KT 290V010 8000 -RA FEW007 BKN032 04/04 Q1004 NOSIG
Conditions at: EDDR (SAARBRUECKEN , DE) observed 1420 UTC 17 November 2019
Temperature: 4.0°C (39°F)
Dewpoint: 4.0°C (39°F) [RH = 100%]
Pressure (altimeter): 29.65 inches Hg (1004.0 mb)
Winds: from the NW (320 degrees) at 6 MPH (5 knots; 2.6 m/s)
Visibility: 5 miles ( 8 km)
Ceiling: 3200 feet AGL
Clouds: few clouds at 700 feet AGL
broken clouds at 3200 feet AGL
Weather: -RA  (light rain)

METAR text: EDDR 171350Z 32003KT 290V350 9000 -RA FEW007 BKN035 05/04 Q1005 NOSIG
Conditions at: EDDR (SAARBRUECKEN , DE) observed 1350 UTC 17 November 2019
Temperature: 5.0°C (41°F)
Dewpoint: 4.0°C (39°F) [RH = 93%]
Pressure (altimeter): 29.68 inches Hg (1005.0 mb)
Winds: from the NW (320 degrees) at 3 MPH (3 knots; 1.5 m/s)
Visibility: 6 miles ( 9 km)
Ceiling: 3500 feet AGL
Clouds: few clouds at 700 feet AGL
broken clouds at 3500 feet AGL
Weather: -RA  (light rain)

METAR text: EDDR 171320Z 34004KT 310V030 9000 -RA SCT030 05/04 Q1005 NOSIG
Conditions at: EDDR (SAARBRUECKEN , DE) observed 1320 UTC 17 November 2019
Temperature: 5.0°C (41°F)
Dewpoint: 4.0°C (39°F) [RH = 93%]
Pressure (altimeter): 29.68 inches Hg (1005.0 mb)
Winds: from the NNW (340 degrees) at 5 MPH (4 knots; 2.1 m/s)
Visibility: 6 miles ( 9 km)
Ceiling: at least 12,000 feet AGL
Clouds: scattered clouds at 3000 feet AGL
Weather: -RA  (light rain)

METAR text: EDDR 171250Z 36007KT 320V030 9000 -RA FEW008 SCT035 05/04 Q1005 NOSIG
Conditions at: EDDR (SAARBRUECKEN , DE) observed 1250 UTC 17 November 2019
Temperature: 5.0°C (41°F)
Dewpoint: 4.0°C (39°F) [RH = 93%]
Pressure (altimeter): 29.68 inches Hg (1005.0 mb)
Winds: from the N (360 degrees) at 8 MPH (7 knots; 3.6 m/s)
Visibility: 6 miles ( 9 km)
Ceiling: at least 12,000 feet AGL
Clouds: few clouds at 800 feet AGL
scattered clouds at 3500 feet AGL
Weather: -RA  (light rain)

METAR text: EDDR 171220Z 36005KT 330V040 9000 -RA FEW008 BKN035 05/04 Q1006 NOSIG
Conditions at: EDDR (SAARBRUECKEN , DE) observed 1220 UTC 17 November 2019
Temperature: 5.0°C (41°F)
Dewpoint: 4.0°C (39°F) [RH = 93%]
Pressure (altimeter): 29.70 inches Hg (1006.0 mb)
Winds: from the N (360 degrees) at 6 MPH (5 knots; 2.6 m/s)
Visibility: 6 miles ( 9 km)
Ceiling: 3500 feet AGL
Clouds: few clouds at 800 feet AGL
broken clouds at 3500 feet AGL
Weather: -RA  (light rain)

METAR text: EDDR 171150Z 34003KT 290V030 8000 BKN007 05/04 Q1006 BECMG SCT009
Conditions at: EDDR (SAARBRUECKEN , DE) observed 1150 UTC 17 November 2019
Temperature: 5.0°C (41°F)
Dewpoint: 4.0°C (39°F) [RH = 93%]
Pressure (altimeter): 29.70 inches Hg (1006.0 mb)
Winds: from the NNW (340 degrees) at 3 MPH (3 knots; 1.5 m/s)
Visibility: 5 miles ( 8 km)
Ceiling: 700 feet AGL
Clouds: broken clouds at 700 feet AGL
Weather: no significant weather observed at this time

METAR text: EDDR 171120Z 34004KT 290V010 5000 BR FEW001 BKN006 05/04 Q1006 BECMG SCT007
Conditions at: EDDR (SAARBRUECKEN , DE) observed 1120 UTC 17 November 2019
Temperature: 5.0°C (41°F)
Dewpoint: 4.0°C (39°F) [RH = 93%]
Pressure (altimeter): 29.70 inches Hg (1006.0 mb)
Winds: from the NNW (340 degrees) at 5 MPH (4 knots; 2.1 m/s)
Visibility: 3 miles ( 5 km)
Ceiling: 600 feet AGL
Clouds: few clouds at 100 feet AGL
broken clouds at 600 feet AGL
Weather: BR  (mist)

METAR text: EDDR 171050Z 02007KT 330V060 5000 BR FEW001 BKN005 04/03 Q1006 BECMG SCT007
Conditions at: EDDR (SAARBRUECKEN , DE) observed 1050 UTC 17 November 2019
Temperature: 4.0°C (39°F)
Dewpoint: 3.0°C (37°F) [RH = 93%]
Pressure (altimeter): 29.70 inches Hg (1006.0 mb)
Winds: from the NNE (20 degrees) at 8 MPH (7 knots; 3.6 m/s)
Visibility: 3 miles ( 5 km)
Ceiling: 500 feet AGL
Clouds: few clouds at 100 feet AGL
broken clouds at 500 feet AGL
Weather: BR  (mist)

METAR text: EDDR 171020Z 03008KT 360V070 4000 BR SCT001 BKN004 04/03 Q1007 BECMG 5000 BKN005
Conditions at: EDDR (SAARBRUECKEN , DE) observed 1020 UTC 17 November 2019
Temperature: 4.0°C (39°F)
Dewpoint: 3.0°C (37°F) [RH = 93%]
Pressure (altimeter): 29.73 inches Hg (1007.0 mb)
Winds: from the NNE (30 degrees) at 9 MPH (8 knots; 4.1 m/s)
Visibility: 2.49 miles (4.01 km)
Ceiling: 400 feet AGL
Clouds: scattered clouds at 100 feet AGL
broken clouds at 400 feet AGL
Weather: BR  (mist)

METAR text: EDDR 170950Z 05006KT 010V090 3000 BR SCT001 BKN003 03/03 Q1007 BECMG 5000 BKN005
Conditions at: EDDR (SAARBRUECKEN , DE) observed 0950 UTC 17 November 2019
Temperature: 3.0°C (37°F)
Dewpoint: 3.0°C (37°F) [RH = 100%]
Pressure (altimeter): 29.73 inches Hg (1007.0 mb)
Winds: from the NE (50 degrees) at 7 MPH (6 knots; 3.1 m/s)
Visibility: 1.86 miles (2.99 km)
Ceiling: 300 feet AGL
Clouds: scattered clouds at 100 feet AGL
broken clouds at 300 feet AGL
Weather: BR  (mist)

METAR text: EDDR 170920Z 03006KT 350V080 1700 BR SCT001 BKN002 03/03 Q1007 BECMG 3000
Conditions at: EDDR (SAARBRUECKEN , DE) observed 0920 UTC 17 November 2019
Temperature: 3.0°C (37°F)
Dewpoint: 3.0°C (37°F) [RH = 100%]
Pressure (altimeter): 29.73 inches Hg (1007.0 mb)
Winds: from the NNE (30 degrees) at 7 MPH (6 knots; 3.1 m/s)
Visibility: 1.06 miles (1.71 km)
Ceiling: 200 feet AGL
Clouds: scattered clouds at 100 feet AGL
broken clouds at 200 feet AGL
Weather: BR  (mist)

METAR text: EDDR 170850Z 03007KT 350V060 1100 R27/1800U BR BKN001 02/02 Q1008 BECMG 1500 BR BKN002
Conditions at: EDDR (SAARBRUECKEN , DE) observed 0850 UTC 17 November 2019
Temperature: 2.0°C (36°F)
Dewpoint: 2.0°C (36°F) [RH = 100%]
Pressure (altimeter): 29.76 inches Hg (1008.0 mb)
Winds: from the NNE (30 degrees) at 8 MPH (7 knots; 3.6 m/s)
Visibility: 0.68 miles (1.09 km)
Ceiling: 100 feet AGL
Clouds: broken clouds at 100 feet AGL
Weather: BR  (mist)

METAR text: EDDR 170820Z 05008KT 0650 R27/1300N FG BKN001 02/02 Q1008 BECMG 1000 BR
Conditions at: EDDR (SAARBRUECKEN , DE) observed 0820 UTC 17 November 2019
Temperature: 2.0°C (36°F)
Dewpoint: 2.0°C (36°F) [RH = 100%]
Pressure (altimeter): 29.76 inches Hg (1008.0 mb)
Winds: from the NE (50 degrees) at 9 MPH (8 knots; 4.1 m/s)
Visibility: 0.40 miles (0.64 km)
Ceiling: 100 feet AGL
Clouds: broken clouds at 100 feet AGL
Weather: FG  (fog)

METAR text: EDDR 170750Z 04007KT 0700 R27/1200U FG BKN001 02/02 Q1008 BECMG 1000 BR
Conditions at: EDDR (SAARBRUECKEN , DE) observed 0750 UTC 17 November 2019
Temperature: 2.0°C (36°F)
Dewpoint: 2.0°C (36°F) [RH = 100%]
Pressure (altimeter): 29.76 inches Hg (1008.0 mb)
Winds: from the NE (40 degrees) at 8 MPH (7 knots; 3.6 m/s)
Visibility: 0.43 miles (0.69 km)
Ceiling: 100 feet AGL
Clouds: broken clouds at 100 feet AGL
Weather: FG  (fog)

METAR text: EDDR 170720Z 05006KT 010V070 0400 R27/1000N FG VV/// 02/02 Q1008 NOSIG
Conditions at: EDDR (SAARBRUECKEN , DE) observed 0720 UTC 17 November 2019
Temperature: 2.0°C (36°F)
Dewpoint: 2.0°C (36°F) [RH = 100%]
Pressure (altimeter): 29.76 inches Hg (1008.0 mb)
Winds: from the NE (50 degrees) at 7 MPH (6 knots; 3.1 m/s)
Visibility: 0.25 miles (0.40 km)
Ceiling: indefinite ceiling with vertical visibility of 0 feet AGL
Clouds: obscured sky
Weather: FG  (fog)

METAR text: EDDR 170650Z 04008KT 010V070 0400 R27/1000N FG VV/// 02/02 Q1008 NOSIG
Conditions at: EDDR (SAARBRUECKEN , DE) observed 0650 UTC 17 November 2019
Temperature: 2.0°C (36°F)
Dewpoint: 2.0°C (36°F) [RH = 100%]
Pressure (altimeter): 29.76 inches Hg (1008.0 mb)
Winds: from the NE (40 degrees) at 9 MPH (8 knots; 4.1 m/s)
Visibility: 0.25 miles (0.40 km)
Ceiling: indefinite ceiling with vertical visibility of 0 feet AGL
Clouds: obscured sky
Weather: FG  (fog)

METAR text: EDDR 170620Z 05008KT 020V080 0600 R27/1600U FG BKN001 02/02 Q1009 NOSIG
Conditions at: EDDR (SAARBRUECKEN , DE) observed 0620 UTC 17 November 2019
Temperature: 2.0°C (36°F)
Dewpoint: 2.0°C (36°F) [RH = 100%]
Pressure (altimeter): 29.79 inches Hg (1009.0 mb)
Winds: from the NE (50 degrees) at 9 MPH (8 knots; 4.1 m/s)
Visibility: 0.37 miles (0.60 km)
Ceiling: 100 feet AGL
Clouds: broken clouds at 100 feet AGL
Weather: FG  (fog)

METAR text: EDDR 170550Z 04008KT 010V070 0400 R27/1300N FG BKN001 01/01 Q1009 NOSIG
Conditions at: EDDR (SAARBRUECKEN , DE) observed 0550 UTC 17 November 2019
Temperature: 1.0°C (34°F)
Dewpoint: 1.0°C (34°F) [RH = 100%]
Pressure (altimeter): 29.79 inches Hg (1009.0 mb)
Winds: from the NE (40 degrees) at 9 MPH (8 knots; 4.1 m/s)
Visibility: 0.25 miles (0.40 km)
Ceiling: 100 feet AGL
Clouds: broken clouds at 100 feet AGL
Weather: FG  (fog)

METAR text: EDDR 170520Z 05008KT 020V080 0400 R27/1100N FG BKN001 01/01 Q1009 NOSIG
Conditions at: EDDR (SAARBRUECKEN , DE) observed 0520 UTC 17 November 2019
Temperature: 1.0°C (34°F)
Dewpoint: 1.0°C (34°F) [RH = 100%]
Pressure (altimeter): 29.79 inches Hg (1009.0 mb)
Winds: from the NE (50 degrees) at 9 MPH (8 knots; 4.1 m/s)
Visibility: 0.25 miles (0.40 km)
Ceiling: 100 feet AGL
Clouds: broken clouds at 100 feet AGL
Weather: FG  (fog)

METAR text: EDDR 170450Z 05008KT 020V080 0400 R27/1100N FG BKN001 01/01 Q1010 NOSIG
Conditions at: EDDR (SAARBRUECKEN , DE) observed 0450 UTC 17 November 2019
Temperature: 1.0°C (34°F)
Dewpoint: 1.0°C (34°F) [RH = 100%]
Pressure (altimeter): 29.82 inches Hg (1010.0 mb)
Winds: from the NE (50 degrees) at 9 MPH (8 knots; 4.1 m/s)
Visibility: 0.25 miles (0.40 km)
Ceiling: 100 feet AGL
Clouds: broken clouds at 100 feet AGL
Weather: FG  (fog)

METAR text: EDDR 170420Z 06006KT 020V100 0350 R27/1000N FG BKN001 01/01 Q1010
Conditions at: EDDR (SAARBRUECKEN , DE) observed 0420 UTC 17 November 2019
Temperature: 1.0°C (34°F)
Dewpoint: 1.0°C (34°F) [RH = 100%]
Pressure (altimeter): 29.82 inches Hg (1010.0 mb)
Winds: from the ENE (60 degrees) at 7 MPH (6 knots; 3.1 m/s)
Visibility: 0.22 miles (0.35 km)
Ceiling: 100 feet AGL
Clouds: broken clouds at 100 feet AGL
Weather: FG  (fog)

METAR text: EDDR 170350Z 04007KT 350V090 0350 R27/0900N FG BKN001 01/01 Q1009
Conditions at: EDDR (SAARBRUECKEN , DE) observed 0350 UTC 17 November 2019
Temperature: 1.0°C (34°F)
Dewpoint: 1.0°C (34°F) [RH = 100%]
Pressure (altimeter): 29.79 inches Hg (1009.0 mb)
Winds: from the NE (40 degrees) at 8 MPH (7 knots; 3.6 m/s)
Visibility: 0.22 miles (0.35 km)
Ceiling: 100 feet AGL
Clouds: broken clouds at 100 feet AGL
Weather: FG  (fog)

METAR text: EDDR 170320Z 05008KT 010V090 0800 R27/1300U FG BKN001 00/00 Q1009
Conditions at: EDDR (SAARBRUECKEN , DE) observed 0320 UTC 17 November 2019
Temperature: 0.0°C (32°F)
Dewpoint: 0.0°C (32°F) [RH = 100%]
Pressure (altimeter): 29.79 inches Hg (1009.0 mb)
Winds: from the NE (50 degrees) at 9 MPH (8 knots; 4.1 m/s)
Visibility: 0.50 miles (0.80 km)
Ceiling: 100 feet AGL
Clouds: broken clouds at 100 feet AGL
Weather: FG  (fog)

METAR text: EDDR 170250Z 04007KT 0900 R27/1500D FZFG NSC M00/M00 Q1010
Conditions at: EDDR (SAARBRUECKEN , DE) observed 0250 UTC 17 November 2019
Temperature: 0.0°C (32°F)
Dewpoint: 0.0°C (32°F) [RH = 100%]
Pressure (altimeter): 29.82 inches Hg (1010.0 mb)
Winds: from the NE (40 degrees) at 8 MPH (7 knots; 3.6 m/s)
Visibility: 0.56 miles (0.90 km)
Ceiling: at least 12,000 feet AGL
Clouds: sky clear below 12,000 feet AGL
Weather: FZFG  (freezing fog)

METAR text: EDDR 170220Z 01005KT 340V050 2800 BCFG BR FEW001 M00/M00 Q1010
Conditions at: EDDR (SAARBRUECKEN , DE) observed 0220 UTC 17 November 2019
Temperature: 0.0°C (32°F)
Dewpoint: 0.0°C (32°F) [RH = 100%]
Pressure (altimeter): 29.82 inches Hg (1010.0 mb)
Winds: from the N (10 degrees) at 6 MPH (5 knots; 2.6 m/s)
Visibility: 1.74 miles (2.80 km)
Ceiling: at least 12,000 feet AGL
Clouds: few clouds at 100 feet AGL
Weather: BCFG BR  (patches of fog, mist)

METAR text: EDDR 170150Z 04006KT 010V070 4500 BR FEW001 00/00 Q1010
Conditions at: EDDR (SAARBRUECKEN , DE) observed 0150 UTC 17 November 2019
Temperature: 0.0°C (32°F)
Dewpoint: 0.0°C (32°F) [RH = 100%]
Pressure (altimeter): 29.82 inches Hg (1010.0 mb)
Winds: from the NE (40 degrees) at 7 MPH (6 knots; 3.1 m/s)
Visibility: 2.80 miles (4.51 km)
Ceiling: at least 12,000 feet AGL
Clouds: few clouds at 100 feet AGL
Weather: BR  (mist)

METAR text: EDDR 170120Z 05006KT 6000 NSC 01/01 Q1010
Conditions at: EDDR (SAARBRUECKEN , DE) observed 0120 UTC 17 November 2019
Temperature: 1.0°C (34°F)
Dewpoint: 1.0°C (34°F) [RH = 100%]
Pressure (altimeter): 29.82 inches Hg (1010.0 mb)
Winds: from the NE (50 degrees) at 7 MPH (6 knots; 3.1 m/s)
Visibility: 4 miles ( 6 km)
Ceiling: at least 12,000 feet AGL
Clouds: sky clear below 12,000 feet AGL
Weather: no significant weather observed at this time

METAR text: EDDR 170050Z 06007KT 7000 NSC 01/01 Q1010
Conditions at: EDDR (SAARBRUECKEN , DE) observed 0050 UTC 17 November 2019
Temperature: 1.0°C (34°F)
Dewpoint: 1.0°C (34°F) [RH = 100%]
Pressure (altimeter): 29.82 inches Hg (1010.0 mb)
Winds: from the ENE (60 degrees) at 8 MPH (7 knots; 3.6 m/s)
Visibility: 4 miles ( 7 km)
Ceiling: at least 12,000 feet AGL
Clouds: sky clear below 12,000 feet AGL
Weather: no significant weather observed at this time

METAR text: EDDR 170020Z 06006KT 7000 NSC 00/M00 Q1011
Conditions at: EDDR (SAARBRUECKEN , DE) observed 0020 UTC 17 November 2019
Temperature: 0.0°C (32°F)
Dewpoint: 0.0°C (32°F) [RH = 100%]
Pressure (altimeter): 29.85 inches Hg (1011.0 mb)
Winds: from the ENE (60 degrees) at 7 MPH (6 knots; 3.1 m/s)
Visibility: 4 miles ( 7 km)
Ceiling: at least 12,000 feet AGL
Clouds: sky clear below 12,000 feet AGL
Weather: no significant weather observed at this time

METAR text: EDDR 162350Z 06005KT 7000 NSC 00/00 Q1011
Conditions at: EDDR (SAARBRUECKEN , DE) observed 2350 UTC 16 November 2019
Temperature: 0.0°C (32°F)
Dewpoint: 0.0°C (32°F) [RH = 100%]
Pressure (altimeter): 29.85 inches Hg (1011.0 mb)
Winds: from the ENE (60 degrees) at 6 MPH (5 knots; 2.6 m/s)
Visibility: 4 miles ( 7 km)
Ceiling: at least 12,000 feet AGL
Clouds: sky clear below 12,000 feet AGL
Weather: no significant weather observed at this time

METAR text: EDDR 162320Z 06006KT 7000 NSC 00/00 Q1011
Conditions at: EDDR (SAARBRUECKEN , DE) observed 2320 UTC 16 November 2019
Temperature: 0.0°C (32°F)
Dewpoint: 0.0°C (32°F) [RH = 100%]
Pressure (altimeter): 29.85 inches Hg (1011.0 mb)
Winds: from the ENE (60 degrees) at 7 MPH (6 knots; 3.1 m/s)
Visibility: 4 miles ( 7 km)
Ceiling: at least 12,000 feet AGL
Clouds: sky clear below 12,000 feet AGL
Weather: no significant weather observed at this time

METAR text: EDDR 162250Z 07005KT 7000 NSC M00/M00 Q1011
Conditions at: EDDR (SAARBRUECKEN , DE) observed 2250 UTC 16 November 2019
Temperature: 0.0°C (32°F)
Dewpoint: 0.0°C (32°F) [RH = 100%]
Pressure (altimeter): 29.85 inches Hg (1011.0 mb)
Winds: from the ENE (70 degrees) at 6 MPH (5 knots; 2.6 m/s)
Visibility: 4 miles ( 7 km)
Ceiling: at least 12,000 feet AGL
Clouds: sky clear below 12,000 feet AGL
Weather: no significant weather observed at this time

METAR text: EDDR 162220Z 07005KT 7000 NSC M00/M01 Q1011
Conditions at: EDDR (SAARBRUECKEN , DE) observed 2220 UTC 16 November 2019
Temperature: 0.0°C (32°F)
Dewpoint: -1.0°C (30°F) [RH = 93%]
Pressure (altimeter): 29.85 inches Hg (1011.0 mb)
Winds: from the ENE (70 degrees) at 6 MPH (5 knots; 2.6 m/s)
Visibility: 4 miles ( 7 km)
Ceiling: at least 12,000 feet AGL
Clouds: sky clear below 12,000 feet AGL
Weather: no significant weather observed at this time

METAR text: EDDR 162150Z 07005KT 7000 NSC 00/00 Q1011
Conditions at: EDDR (SAARBRUECKEN , DE) observed 2150 UTC 16 November 2019
Temperature: 0.0°C (32°F)
Dewpoint: 0.0°C (32°F) [RH = 100%]
Pressure (altimeter): 29.85 inches Hg (1011.0 mb)
Winds: from the ENE (70 degrees) at 6 MPH (5 knots; 2.6 m/s)
Visibility: 4 miles ( 7 km)
Ceiling: at least 12,000 feet AGL
Clouds: sky clear below 12,000 feet AGL
Weather: no significant weather observed at this time

METAR text: EDDR 162120Z 08006KT 8000 NSC M00/M00 Q1011 NOSIG
Conditions at: EDDR (SAARBRUECKEN , DE) observed 2120 UTC 16 November 2019
Temperature: 0.0°C (32°F)
Dewpoint: 0.0°C (32°F) [RH = 100%]
Pressure (altimeter): 29.85 inches Hg (1011.0 mb)
Winds: from the E (80 degrees) at 7 MPH (6 knots; 3.1 m/s)
Visibility: 5 miles ( 8 km)
Ceiling: at least 12,000 feet AGL
Clouds: sky clear below 12,000 feet AGL
Weather: no significant weather observed at this time

METAR text: EDDR 162050Z 05005KT CAVOK 00/M00 Q1011 NOSIG
Conditions at: EDDR (SAARBRUECKEN , DE) observed 2050 UTC 16 November 2019
Temperature: 0.0°C (32°F)
Dewpoint: 0.0°C (32°F) [RH = 100%]
Pressure (altimeter): 29.85 inches Hg (1011.0 mb)
Winds: from the NE (50 degrees) at 6 MPH (5 knots; 2.6 m/s)
Visibility: 6 or more miles (10+ km)
Ceiling: ceiling and visibility are OK
Clouds: unknown
Weather: no significant weather observed at this time

METAR text: EDDR 162020Z 06004KT CAVOK 01/00 Q1011 NOSIG
Conditions at: EDDR (SAARBRUECKEN , DE) observed 2020 UTC 16 November 2019
Temperature: 1.0°C (34°F)
Dewpoint: 0.0°C (32°F) [RH = 93%]
Pressure (altimeter): 29.85 inches Hg (1011.0 mb)
Winds: from the ENE (60 degrees) at 5 MPH (4 knots; 2.1 m/s)
Visibility: 6 or more miles (10+ km)
Ceiling: ceiling and visibility are OK
Clouds: unknown
Weather: no significant weather observed at this time

METAR text: EDDR 161950Z VRB02KT CAVOK 01/00 Q1011 NOSIG
Conditions at: EDDR (SAARBRUECKEN , DE) observed 1950 UTC 16 November 2019
Temperature: 1.0°C (34°F)
Dewpoint: 0.0°C (32°F) [RH = 93%]
Pressure (altimeter): 29.85 inches Hg (1011.0 mb)
Winds: variable direction winds at 2 MPH (2 knots; 1.0 m/s)
Visibility: 6 or more miles (10+ km)
Ceiling: ceiling and visibility are OK
Clouds: unknown
Weather: no significant weather observed at this time

METAR text: EDDR 161920Z 06003KT CAVOK 02/01 Q1011 NOSIG
Conditions at: EDDR (SAARBRUECKEN , DE) observed 1920 UTC 16 November 2019
Temperature: 2.0°C (36°F)
Dewpoint: 1.0°C (34°F) [RH = 93%]
Pressure (altimeter): 29.85 inches Hg (1011.0 mb)
Winds: from the ENE (60 degrees) at 3 MPH (3 knots; 1.5 m/s)
Visibility: 6 or more miles (10+ km)
Ceiling: ceiling and visibility are OK
Clouds: unknown
Weather: no significant weather observed at this time

METAR text: EDDR 161850Z 10006KT CAVOK 03/02 Q1011 NOSIG
Conditions at: EDDR (SAARBRUECKEN , DE) observed 1850 UTC 16 November 2019
Temperature: 3.0°C (37°F)
Dewpoint: 2.0°C (36°F) [RH = 93%]
Pressure (altimeter): 29.85 inches Hg (1011.0 mb)
Winds: from the E (100 degrees) at 7 MPH (6 knots; 3.1 m/s)
Visibility: 6 or more miles (10+ km)
Ceiling: ceiling and visibility are OK
Clouds: unknown
Weather: no significant weather observed at this time

METAR text: EDDR 161820Z 08006KT CAVOK 02/01 Q1010 NOSIG
Conditions at: EDDR (SAARBRUECKEN , DE) observed 1820 UTC 16 November 2019
Temperature: 2.0°C (36°F)
Dewpoint: 1.0°C (34°F) [RH = 93%]
Pressure (altimeter): 29.82 inches Hg (1010.0 mb)
Winds: from the E (80 degrees) at 7 MPH (6 knots; 3.1 m/s)
Visibility: 6 or more miles (10+ km)
Ceiling: ceiling and visibility are OK
Clouds: unknown
Weather: no significant weather observed at this time

METAR text: EDDR 161750Z 09006KT CAVOK 02/01 Q1010 NOSIG
Conditions at: EDDR (SAARBRUECKEN , DE) observed 1750 UTC 16 November 2019
Temperature: 2.0°C (36°F)
Dewpoint: 1.0°C (34°F) [RH = 93%]
Pressure (altimeter): 29.82 inches Hg (1010.0 mb)
Winds: from the E (90 degrees) at 7 MPH (6 knots; 3.1 m/s)
Visibility: 6 or more miles (10+ km)
Ceiling: ceiling and visibility are OK
Clouds: unknown
Weather: no significant weather observed at this time

METAR text: EDDR 161720Z 08005KT CAVOK 01/00 Q1010 NOSIG
Conditions at: EDDR (SAARBRUECKEN , DE) observed 1720 UTC 16 November 2019
Temperature: 1.0°C (34°F)
Dewpoint: 0.0°C (32°F) [RH = 93%]
Pressure (altimeter): 29.82 inches Hg (1010.0 mb)
Winds: from the E (80 degrees) at 6 MPH (5 knots; 2.6 m/s)
Visibility: 6 or more miles (10+ km)
Ceiling: ceiling and visibility are OK
Clouds: unknown
Weather: no significant weather observed at this time

METAR text: EDDR 161650Z 08004KT CAVOK 02/01 Q1010 NOSIG
Conditions at: EDDR (SAARBRUECKEN , DE) observed 1650 UTC 16 November 2019
Temperature: 2.0°C (36°F)
Dewpoint: 1.0°C (34°F) [RH = 93%]
Pressure (altimeter): 29.82 inches Hg (1010.0 mb)
Winds: from the E (80 degrees) at 5 MPH (4 knots; 2.1 m/s)
Visibility: 6 or more miles (10+ km)
Ceiling: ceiling and visibility are OK
Clouds: unknown
Weather: no significant weather observed at this time

METAR text: EDDR 161620Z 08003KT CAVOK 03/01 Q1010 NOSIG
Conditions at: EDDR (SAARBRUECKEN , DE) observed 1620 UTC 16 November 2019
Temperature: 3.0°C (37°F)
Dewpoint: 1.0°C (34°F) [RH = 87%]
Pressure (altimeter): 29.82 inches Hg (1010.0 mb)
Winds: from the E (80 degrees) at 3 MPH (3 knots; 1.5 m/s)
Visibility: 6 or more miles (10+ km)
Ceiling: ceiling and visibility are OK
Clouds: unknown
Weather: no significant weather observed at this time

METAR text: EDDR 161550Z 14002KT CAVOK 04/02 Q1010 NOSIG
Conditions at: EDDR (SAARBRUECKEN , DE) observed 1550 UTC 16 November 2019
Temperature: 4.0°C (39°F)
Dewpoint: 2.0°C (36°F) [RH = 87%]
Pressure (altimeter): 29.82 inches Hg (1010.0 mb)
Winds: from the SE (140 degrees) at 2 MPH (2 knots; 1.0 m/s)
Visibility: 6 or more miles (10+ km)
Ceiling: ceiling and visibility are OK
Clouds: unknown
Weather: no significant weather observed at this time

METAR text: EDDR 161520Z 12004KT CAVOK 05/02 Q1009 NOSIG
Conditions at: EDDR (SAARBRUECKEN , DE) observed 1520 UTC 16 November 2019
Temperature: 5.0°C (41°F)
Dewpoint: 2.0°C (36°F) [RH = 81%]
Pressure (altimeter): 29.79 inches Hg (1009.0 mb)
Winds: from the ESE (120 degrees) at 5 MPH (4 knots; 2.1 m/s)
Visibility: 6 or more miles (10+ km)
Ceiling: ceiling and visibility are OK
Clouds: unknown
Weather: no significant weather observed at this time

METAR text: EDDR 161450Z AUTO 15003KT //// R27/P2000N // ///////// 06/02 Q1009 NOSIG
Conditions at: EDDR (SAARBRUECKEN , DE) observed 1450 UTC 16 November 2019
Temperature: 6.0°C (43°F)
Dewpoint: 2.0°C (36°F) [RH = 75%]
Pressure (altimeter): 29.79 inches Hg (1009.0 mb)
Winds: from the SSE (150 degrees) at 3 MPH (3 knots; 1.5 m/s)
Visibility: 1.24 miles (2.00 km)
Ceiling: unknown
Clouds: missing
Weather: no significant weather observed at this time

METAR text: EDDR 161420Z 18004KT 150V210 CAVOK 07/02 Q1009 NOSIG
Conditions at: EDDR (SAARBRUECKEN , DE) observed 1420 UTC 16 November 2019
Temperature: 7.0°C (45°F)
Dewpoint: 2.0°C (36°F) [RH = 70%]
Pressure (altimeter): 29.79 inches Hg (1009.0 mb)
Winds: from the S (180 degrees) at 5 MPH (4 knots; 2.1 m/s)
Visibility: 6 or more miles (10+ km)
Ceiling: ceiling and visibility are OK
Clouds: unknown
Weather: no significant weather observed at this time

METAR text: EDDR 161350Z 19003KT 140V230 CAVOK 06/03 Q1009 NOSIG
Conditions at: EDDR (SAARBRUECKEN , DE) observed 1350 UTC 16 November 2019
Temperature: 6.0°C (43°F)
Dewpoint: 3.0°C (37°F) [RH = 81%]
Pressure (altimeter): 29.79 inches Hg (1009.0 mb)
Winds: from the S (190 degrees) at 3 MPH (3 knots; 1.5 m/s)
Visibility: 6 or more miles (10+ km)
Ceiling: ceiling and visibility are OK
Clouds: unknown
Weather: no significant weather observed at this time

METAR text: EDDR 161320Z 20005KT 160V230 CAVOK 06/02 Q1009 NOSIG
Conditions at: EDDR (SAARBRUECKEN , DE) observed 1320 UTC 16 November 2019
Temperature: 6.0°C (43°F)
Dewpoint: 2.0°C (36°F) [RH = 75%]
Pressure (altimeter): 29.79 inches Hg (1009.0 mb)
Winds: from the SSW (200 degrees) at 6 MPH (5 knots; 2.6 m/s)
Visibility: 6 or more miles (10+ km)
Ceiling: ceiling and visibility are OK
Clouds: unknown
Weather: no significant weather observed at this time

METAR text: EDDR 161250Z 17003KT 110V200 9999 FEW040CB 06/02 Q1009 NOSIG
Conditions at: EDDR (SAARBRUECKEN , DE) observed 1250 UTC 16 November 2019
Temperature: 6.0°C (43°F)
Dewpoint: 2.0°C (36°F) [RH = 75%]
Pressure (altimeter): 29.79 inches Hg (1009.0 mb)
Winds: from the S (170 degrees) at 3 MPH (3 knots; 1.5 m/s)
Visibility: 6 or more miles (10+ km)
Ceiling: at least 12,000 feet AGL
Clouds: few clouds at 4000 feet AGL
Weather: no significant weather observed at this time

METAR text: EDDR 161220Z VRB01KT 9999 FEW040CB 06/03 Q1009 NOSIG
Conditions at: EDDR (SAARBRUECKEN , DE) observed 1220 UTC 16 November 2019
Temperature: 6.0°C (43°F)
Dewpoint: 3.0°C (37°F) [RH = 81%]
Pressure (altimeter): 29.79 inches Hg (1009.0 mb)
Winds: variable direction winds at 1 MPH (1 knots; 0.5 m/s)
Visibility: 6 or more miles (10+ km)
Ceiling: at least 12,000 feet AGL
Clouds: few clouds at 4000 feet AGL
Weather: no significant weather observed at this time

METAR text: EDDR 161150Z 24003KT 200V270 9999 FEW040CB 06/02 Q1009 NOSIG
Conditions at: EDDR (SAARBRUECKEN , DE) observed 1150 UTC 16 November 2019
Temperature: 6.0°C (43°F)
Dewpoint: 2.0°C (36°F) [RH = 75%]
Pressure (altimeter): 29.79 inches Hg (1009.0 mb)
Winds: from the WSW (240 degrees) at 3 MPH (3 knots; 1.5 m/s)
Visibility: 6 or more miles (10+ km)
Ceiling: at least 12,000 feet AGL
Clouds: few clouds at 4000 feet AGL
Weather: no significant weather observed at this time

METAR text: EDDR 161120Z 21004KT 140V250 9999 FEW040 05/01 Q1009 NOSIG
Conditions at: EDDR (SAARBRUECKEN , DE) observed 1120 UTC 16 November 2019
Temperature: 5.0°C (41°F)
Dewpoint: 1.0°C (34°F) [RH = 75%]
Pressure (altimeter): 29.79 inches Hg (1009.0 mb)
Winds: from the SSW (210 degrees) at 5 MPH (4 knots; 2.1 m/s)
Visibility: 6 or more miles (10+ km)
Ceiling: at least 12,000 feet AGL
Clouds: few clouds at 4000 feet AGL
Weather: no significant weather observed at this time

METAR text: EDDR 161050Z VRB02KT 9999 FEW040TCU 04/02 Q1009 NOSIG
Conditions at: EDDR (SAARBRUECKEN , DE) observed 1050 UTC 16 November 2019
Temperature: 4.0°C (39°F)
Dewpoint: 2.0°C (36°F) [RH = 87%]
Pressure (altimeter): 29.79 inches Hg (1009.0 mb)
Winds: variable direction winds at 2 MPH (2 knots; 1.0 m/s)
Visibility: 6 or more miles (10+ km)
Ceiling: at least 12,000 feet AGL
Clouds: few clouds at 4000 feet AGL
Weather: no significant weather observed at this time

METAR text: EDDR 161020Z VRB02KT 9999 FEW036 04/02 Q1009 NOSIG
Conditions at: EDDR (SAARBRUECKEN , DE) observed 1020 UTC 16 November 2019
Temperature: 4.0°C (39°F)
Dewpoint: 2.0°C (36°F) [RH = 87%]
Pressure (altimeter): 29.79 inches Hg (1009.0 mb)
Winds: variable direction winds at 2 MPH (2 knots; 1.0 m/s)
Visibility: 6 or more miles (10+ km)
Ceiling: at least 12,000 feet AGL
Clouds: few clouds at 3600 feet AGL
Weather: no significant weather observed at this time

METAR text: EDDR 160950Z 24003KT 180V310 9999 FEW038 03/02 Q1009 NOSIG
Conditions at: EDDR (SAARBRUECKEN , DE) observed 0950 UTC 16 November 2019
Temperature: 3.0°C (37°F)
Dewpoint: 2.0°C (36°F) [RH = 93%]
Pressure (altimeter): 29.79 inches Hg (1009.0 mb)
Winds: from the WSW (240 degrees) at 3 MPH (3 knots; 1.5 m/s)
Visibility: 6 or more miles (10+ km)
Ceiling: at least 12,000 feet AGL
Clouds: few clouds at 3800 feet AGL
Weather: no significant weather observed at this time

METAR text: EDDR 160920Z 22003KT 150V290 8000 FEW036 02/01 Q1008 NOSIG
Conditions at: EDDR (SAARBRUECKEN , DE) observed 0920 UTC 16 November 2019
Temperature: 2.0°C (36°F)
Dewpoint: 1.0°C (34°F) [RH = 93%]
Pressure (altimeter): 29.76 inches Hg (1008.0 mb)
Winds: from the SW (220 degrees) at 3 MPH (3 knots; 1.5 m/s)
Visibility: 5 miles ( 8 km)
Ceiling: at least 12,000 feet AGL
Clouds: few clouds at 3600 feet AGL
Weather: no significant weather observed at this time

METAR text: EDDR 160850Z VRB02KT 8000 FEW036 01/01 Q1008 NOSIG
Conditions at: EDDR (SAARBRUECKEN , DE) observed 0850 UTC 16 November 2019
Temperature: 1.0°C (34°F)
Dewpoint: 1.0°C (34°F) [RH = 100%]
Pressure (altimeter): 29.76 inches Hg (1008.0 mb)
Winds: variable direction winds at 2 MPH (2 knots; 1.0 m/s)
Visibility: 5 miles ( 8 km)
Ceiling: at least 12,000 feet AGL
Clouds: few clouds at 3600 feet AGL
Weather: no significant weather observed at this time

METAR text: EDDR 160820Z 09003KT 9000 FEW037 00/00 Q1008 NOSIG
Conditions at: EDDR (SAARBRUECKEN , DE) observed 0820 UTC 16 November 2019
Temperature: 0.0°C (32°F)
Dewpoint: 0.0°C (32°F) [RH = 100%]
Pressure (altimeter): 29.76 inches Hg (1008.0 mb)
Winds: from the E (90 degrees) at 3 MPH (3 knots; 1.5 m/s)
Visibility: 6 miles ( 9 km)
Ceiling: at least 12,000 feet AGL
Clouds: few clouds at 3700 feet AGL
Weather: no significant weather observed at this time

Forecast for: EDDR (SAARBRUECKEN , DE)
Text: TAF EDDR 171700Z 1718/1818 30006KT 6000 BKN008
Forecast period: 1800 UTC 17 November 2019 to 0600 UTC 18 November 2019
Forecast type: FROM: standard forecast or significant change
Winds: from the WNW (300 degrees) at 7 MPH (6 knots; 3.1 m/s)
Visibility: 4 miles (6 km)
Ceiling: 800 feet AGL
Clouds: broken clouds at 800 feet AGL
Weather: no significant weather forecast for this period
Text: TEMPO 1718/1806 2000 DZRA BR BKN003
Forecast period: 1800 UTC 17 November 2019 to 0600 UTC 18 November 2019
Forecast type: TEMPORARY: The following changes expected for less than half the time period
Visibility: 1.24 miles (2.00 km)
Ceiling: 300 feet AGL
Clouds: broken clouds at 300 feet AGL
Weather: DZ RA BR  (moderate drizzle, moderate rain, mist)
Text: BECMG 1806/1808 22007KT 3000 -RA
Forecast period: 0600 to 1100 UTC 18 November 2019
Forecast type: BECOMING: Conditions expected to become as follows by 0800 UTC 18 November 2019
Winds: from the SW (220 degrees) at 8 MPH (7 knots; 3.6 m/s)
Visibility: 1.86 miles (2.99 km)
Ceiling: 800 feet AGL
Clouds: broken clouds at 800 feet AGL
Weather: -RA  (light rain)
Text: TEMPO 1806/1818 2000 -SNRA OVC003
Forecast period: 0600 to 1800 UTC 18 November 2019
Forecast type: TEMPORARY: The following changes expected for less than half the time period
Visibility: 1.24 miles (2.00 km)
Ceiling: 300 feet AGL
Clouds: overcast cloud deck at 300 feet AGL
Weather: -SN -RA  (light snow, light rain)
Text: PROB30
Forecast period: 0900 to 1200 UTC 18 November 2019
Forecast type: TEMPORARY: The following changes expected for less than half the time period
Visibility: 0.62 miles (1.00 km)
Ceiling: indefinite ceiling with vertical visibility of 100 feet AGL
Clouds: obscured sky
Weather: SN  (moderate snow)
Text: TEMPO 1809/1812 1000 SN VV001
Forecast period: 1100 to 1800 UTC 18 November 2019
Forecast type: BECOMING: Conditions expected to become as follows by 1300 UTC 18 November 2019
Winds: from the SW (220 degrees) at 14 MPH (12 knots; 6.2 m/s)
Visibility: 1.86 miles (2.99 km)
Ceiling: 800 feet AGL
Clouds: broken clouds at 800 feet AGL
Weather: -RA  (light rain)